Terminal Aerodrome Forecast
Issued by NWS

Home | Current Version | Previous Version | Text Only | Print | Product List | Glossary On
Versions: 1 2 3 4 5 6 7 8 9 10 11 12
985
FTUS42 TJSJ 260540
TAFJSJ
TAF
TJSJ 260540Z 2606/2706 11003KT P6SM FEW050 SCT250
     FM261500 08014G20KT P6SM SCT040
     FM270000 09006KT P6SM FEW035=

USA.gov is the U.S. government's official web portal to all federal, state and local government web resources and services.